createdAt,value
2018-03-25T00:00:45.656Z,4.09
2018-03-25T00:03:11.527Z,4.13
2018-03-25T00:05:41.225Z,4.19
2018-03-25T00:08:07.096Z,4.22
2018-03-25T00:10:36.203Z,4.23
2018-03-25T00:13:02.065Z,4.19
2018-03-25T00:15:27.927Z,4.19
2018-03-25T00:17:53.784Z,4.16
2018-03-25T00:20:19.630Z,4.08
2018-03-25T00:22:46.900Z,4.03
2018-03-25T00:25:12.772Z,4.02
2018-03-25T00:27:41.619Z,4.04
2018-03-25T00:30:07.485Z,3.93
2018-03-25T00:32:36.239Z,3.95
2018-03-25T00:35:02.143Z,3.98
2018-03-25T00:37:30.933Z,4.01
2018-03-25T00:39:56.826Z,3.92
2018-03-25T00:42:25.525Z,3.77
2018-03-25T00:44:53.121Z,3.68
2018-03-25T00:47:20.790Z,3.75
2018-03-25T00:49:46.676Z,3.80
2018-03-25T00:52:12.569Z,3.75
2018-03-25T00:54:38.538Z,3.71
2018-03-25T00:57:04.398Z,3.75
2018-03-25T00:59:33.365Z,3.73
2018-03-25T01:01:59.236Z,3.58
2018-03-25T01:06:53.224Z,3.62
2018-03-25T01:09:22.340Z,3.36
2018-03-25T01:11:48.641Z,3.36
2018-03-25T01:14:16.555Z,3.44
2018-03-25T01:16:42.474Z,3.46
2018-03-25T01:19:12.219Z,3.49
2018-03-25T01:21:38.123Z,3.49
2018-03-25T01:24:07.510Z,3.49
2018-03-25T01:26:33.444Z,3.48
2018-03-25T01:28:59.322Z,3.45
2018-03-25T01:31:25.221Z,3.38
2018-03-25T01:33:51.082Z,3.40
2018-03-25T01:36:17.633Z,3.27
2018-03-25T01:38:43.528Z,3.32
2018-03-25T01:41:13.708Z,3.35
2018-03-25T01:43:39.594Z,3.32
2018-03-25T01:46:07.533Z,3.25
2018-03-25T01:48:33.446Z,3.22
2018-03-25T01:51:02.935Z,3.15
2018-03-25T01:53:28.793Z,3.20
2018-03-25T01:55:56.327Z,3.24
2018-03-25T01:58:22.187Z,3.22
2018-03-25T02:00:51.234Z,3.21
2018-03-25T02:03:17.561Z,3.15
2018-03-25T02:05:43.457Z,3.16
2018-03-25T02:08:09.406Z,3.07
2018-03-25T02:10:35.301Z,3.09
2018-03-25T02:13:04.423Z,3.12
2018-03-25T02:15:30.332Z,3.05
2018-03-25T02:17:57.765Z,2.95
2018-03-25T02:20:23.741Z,2.82
2018-03-25T02:22:53.311Z,2.71
2018-03-25T02:25:19.225Z,2.89
2018-03-25T02:27:48.910Z,2.94
2018-03-25T02:30:14.768Z,2.99
2018-03-25T02:32:42.627Z,3.00
2018-03-25T02:35:08.504Z,3.00
2018-03-25T02:37:38.034Z,2.93
2018-03-25T02:40:03.926Z,2.91
2018-03-25T02:42:29.845Z,2.87
2018-03-25T02:44:55.750Z,2.85
2018-03-25T02:47:21.621Z,2.80
2018-03-25T02:49:48.068Z,2.76
2018-03-25T02:52:13.915Z,2.80
2018-03-25T02:54:42.532Z,2.76
2018-03-25T02:57:08.441Z,2.74
2018-03-25T03:02:05.362Z,2.66
2018-03-25T03:04:33.086Z,2.68
2018-03-25T03:06:59.023Z,2.54
2018-03-25T03:09:27.283Z,2.49
2018-03-25T03:11:53.168Z,2.33
2018-03-25T03:14:22.855Z,2.26
2018-03-25T03:16:48.761Z,2.21
2018-03-25T03:19:14.646Z,2.22
2018-03-25T03:21:40.537Z,2.24
2018-03-25T03:24:08.259Z,2.18
2018-03-25T03:26:34.136Z,2.23
2018-03-25T03:28:59.993Z,2.24
2018-03-25T03:31:29.806Z,2.30
2018-03-25T03:33:56.248Z,2.39
2018-03-25T03:36:22.723Z,2.35
2018-03-25T03:38:48.620Z,2.31
2018-03-25T03:41:17.322Z,2.33
2018-03-25T03:43:43.197Z,2.33
2018-03-25T03:48:40.094Z,2.37
2018-03-25T03:51:07.461Z,2.36
2018-03-25T03:53:33.346Z,2.25
2018-03-25T03:55:59.258Z,2.23
2018-03-25T03:58:25.169Z,2.22
2018-03-25T04:00:51.092Z,2.24
2018-03-25T04:03:20.532Z,2.26
2018-03-25T04:05:46.430Z,2.17
2018-03-25T04:08:14.141Z,2.20
2018-03-25T04:10:40.040Z,2.17
2018-03-25T04:13:08.932Z,2.09
2018-03-25T04:15:34.811Z,2.09
2018-03-25T04:18:04.457Z,1.74
2018-03-25T04:20:30.345Z,1.60
2018-03-25T04:22:57.638Z,1.52
2018-03-25T04:25:23.546Z,1.52
2018-03-25T04:27:52.286Z,1.59
2018-03-25T04:30:18.784Z,1.66
2018-03-25T04:32:44.780Z,1.60
2018-03-25T04:35:10.770Z,1.61
2018-03-25T04:37:36.668Z,1.65
2018-03-25T04:40:05.918Z,1.60
2018-03-25T04:42:31.803Z,1.68
2018-03-25T04:44:59.407Z,1.72
2018-03-25T04:47:25.328Z,1.68
2018-03-25T04:49:54.347Z,1.77
2018-03-25T04:52:20.638Z,1.79
2018-03-25T04:54:49.808Z,1.76
2018-03-25T04:57:15.672Z,1.83
2018-03-25T04:59:43.035Z,1.90
2018-03-25T05:02:08.915Z,1.84
2018-03-25T05:04:37.735Z,1.85
2018-03-25T05:07:03.610Z,1.88
2018-03-25T05:09:29.445Z,1.84
2018-03-25T05:11:55.333Z,1.92
2018-03-25T05:14:21.199Z,1.96
2018-03-25T05:16:51.049Z,1.93
2018-03-25T05:19:16.993Z,1.98
2018-03-25T05:21:44.304Z,1.96
2018-03-25T05:24:10.136Z,1.95
2018-03-25T05:26:39.398Z,2.01
2018-03-25T05:29:05.258Z,1.96
2018-03-25T05:31:33.471Z,1.89
2018-03-25T05:33:59.640Z,1.77
2018-03-25T05:36:29.062Z,1.75
2018-03-25T05:38:54.913Z,1.74
2018-03-25T05:41:23.893Z,1.78
2018-03-25T05:43:49.743Z,1.75
2018-03-25T05:46:15.671Z,1.84
2018-03-25T05:48:41.546Z,1.93
2018-03-25T05:51:07.389Z,2.10
2018-03-25T05:53:34.749Z,2.16
2018-03-25T05:56:00.727Z,2.24
2018-03-25T05:58:30.394Z,2.23
2018-03-25T06:00:56.280Z,2.34
2018-03-25T06:03:24.468Z,2.49
2018-03-25T06:05:50.350Z,2.39
2018-03-25T06:08:18.772Z,2.47
2018-03-25T06:10:44.733Z,2.53
2018-03-25T06:13:13.591Z,2.67
2018-03-25T06:15:39.484Z,2.85
2018-03-25T06:18:09.076Z,3.07
2018-03-25T06:20:34.940Z,3.22
2018-03-25T06:23:00.795Z,3.22
2018-03-25T06:25:32.676Z,3.16
2018-03-25T06:28:00.644Z,3.23
2018-03-25T06:30:26.551Z,3.48
2018-03-25T06:32:53.612Z,3.65
2018-03-25T06:35:19.580Z,3.51
2018-03-25T06:37:51.247Z,3.56
2018-03-25T06:40:17.484Z,3.89
2018-03-25T06:42:43.376Z,4.39
2018-03-25T06:45:09.623Z,4.89
2018-03-25T06:47:37.642Z,5.14
2018-03-25T06:50:03.891Z,5.43
2018-03-25T06:52:29.711Z,5.64
2018-03-25T06:54:55.565Z,5.98
2018-03-25T06:57:21.402Z,6.39
2018-03-25T06:59:47.251Z,6.88
2018-03-25T07:02:13.105Z,7.25
2018-03-25T07:04:39.003Z,7.61
2018-03-25T07:07:05.336Z,8.03
2018-03-25T07:09:31.195Z,8.00
2018-03-25T07:11:59.965Z,8.65
2018-03-25T07:14:25.870Z,9.36
2018-03-25T07:16:54.802Z,9.65
2018-03-25T07:19:20.685Z,9.86
2018-03-25T07:21:50.506Z,10.40
2018-03-25T07:24:16.404Z,10.65
2018-03-25T07:26:47.581Z,11.13
2018-03-25T07:29:13.436Z,11.30
2018-03-25T07:31:39.414Z,11.49
2018-03-25T07:34:06.745Z,11.62
2018-03-25T07:36:32.680Z,12.20
2018-03-25T07:38:58.562Z,13.01
2018-03-25T07:41:24.431Z,13.65
2018-03-25T07:43:50.345Z,14.15
2018-03-25T07:46:16.198Z,14.16
2018-03-25T07:48:45.004Z,14.55
2018-03-25T07:51:10.881Z,14.58
2018-03-25T07:53:39.899Z,15.18
2018-03-25T07:56:05.756Z,15.64
2018-03-25T07:58:34.441Z,15.44
2018-03-25T08:01:00.435Z,15.67
2018-03-25T08:03:29.136Z,16.49
2018-03-25T08:05:54.973Z,16.87
2018-03-25T08:08:24.552Z,17.48
2018-03-25T08:10:50.563Z,17.42
2018-03-25T08:13:16.447Z,17.41
2018-03-25T08:15:42.317Z,17.11
2018-03-25T08:18:08.155Z,17.04
2018-03-25T08:20:35.861Z,16.96
2018-03-25T08:23:01.718Z,16.14
2018-03-25T08:25:30.551Z,15.99
2018-03-25T08:27:56.451Z,15.97
2018-03-25T08:30:25.899Z,15.74
2018-03-25T08:32:51.913Z,16.21
2018-03-25T08:35:20.167Z,16.28
2018-03-25T08:37:46.199Z,15.72
2018-03-25T08:40:16.073Z,15.80
2018-03-25T08:42:42.038Z,15.70
2018-03-25T08:45:09.386Z,16.00
2018-03-25T08:47:35.258Z,15.77
2018-03-25T08:50:01.161Z,14.82
2018-03-25T08:52:27.033Z,14.78
2018-03-25T08:54:52.958Z,14.75
2018-03-25T08:57:20.993Z,14.90
2018-03-25T08:59:47.545Z,14.78
2018-03-25T09:02:16.010Z,14.79
2018-03-25T09:04:41.837Z,14.99
2018-03-25T09:07:11.641Z,14.95
2018-03-25T09:09:37.516Z,14.61
2018-03-25T09:12:07.205Z,14.73
2018-03-25T09:14:33.083Z,14.70
2018-03-25T09:17:00.046Z,14.74
2018-03-25T09:19:25.894Z,15.05
2018-03-25T09:21:54.605Z,15.23
2018-03-25T09:24:20.466Z,15.70
2018-03-25T09:26:46.521Z,16.26
2018-03-25T09:29:12.380Z,16.51
2018-03-25T09:31:38.745Z,16.03
2018-03-25T09:34:07.981Z,16.48
2018-03-25T09:36:33.831Z,16.74
2018-03-25T09:39:01.345Z,16.95
2018-03-25T09:41:27.177Z,17.33
2018-03-25T09:43:56.867Z,17.33
2018-03-25T09:46:22.752Z,17.84
2018-03-25T09:48:52.485Z,17.91
2018-03-25T09:51:18.330Z,18.11
2018-03-25T09:53:46.085Z,18.14
2018-03-25T09:56:11.998Z,18.40
2018-03-25T09:58:41.516Z,18.62
2018-03-25T10:01:13.617Z,19.18
2018-03-25T10:03:46.782Z,19.59
2018-03-25T10:06:12.626Z,19.64
2018-03-25T10:08:38.536Z,20.00
2018-03-25T10:11:04.450Z,20.46
2018-03-25T10:13:31.038Z,20.31
2018-03-25T10:15:56.917Z,20.41
2018-03-25T10:18:22.793Z,20.29
2018-03-25T10:20:48.657Z,20.73
2018-03-25T10:23:14.495Z,21.15
2018-03-25T10:25:40.376Z,21.70
2018-03-25T10:28:06.212Z,21.09
2018-03-25T10:30:32.095Z,21.29
2018-03-25T10:32:57.936Z,21.88
2018-03-25T10:35:25.216Z,21.97
2018-03-25T10:37:51.133Z,21.50
2018-03-25T10:40:17.085Z,22.15
2018-03-25T10:42:42.958Z,22.31
2018-03-25T10:45:08.825Z,22.26
2018-03-25T10:47:38.786Z,22.71
2018-03-25T10:50:04.651Z,22.76
2018-03-25T10:52:32.410Z,22.96
2018-03-25T10:54:58.274Z,23.39
2018-03-25T10:57:28.106Z,23.35
2018-03-25T10:59:53.977Z,23.42
2018-03-25T11:02:21.520Z,23.18
2018-03-25T11:04:47.433Z,23.35
2018-03-25T11:07:16.088Z,22.62
2018-03-25T11:09:41.974Z,22.56
2018-03-25T11:12:11.693Z,23.23
2018-03-25T11:14:38.856Z,22.77
2018-03-25T11:17:04.762Z,23.13
2018-03-25T11:19:30.647Z,22.53
2018-03-25T11:21:56.547Z,23.22
2018-03-25T11:24:22.467Z,23.39
2018-03-25T11:26:48.347Z,23.73
2018-03-25T11:29:17.292Z,23.91
2018-03-25T11:31:43.171Z,24.41
2018-03-25T11:34:12.585Z,24.54
2018-03-25T11:36:38.511Z,24.29
2018-03-25T11:39:06.574Z,23.92
2018-03-25T11:41:32.471Z,23.88
2018-03-25T11:44:02.234Z,23.69
2018-03-25T11:46:28.132Z,23.51
2018-03-25T11:48:56.306Z,23.29
2018-03-25T11:51:22.227Z,23.10
2018-03-25T11:53:48.121Z,23.07
2018-03-25T11:56:14.040Z,23.59
2018-03-25T11:58:39.947Z,23.44
2018-03-25T12:01:07.825Z,23.26
2018-03-25T12:03:33.731Z,23.05
2018-03-25T12:06:03.214Z,23.22
2018-03-25T12:08:29.073Z,21.21
2018-03-25T12:10:58.761Z,20.68
2018-03-25T12:13:24.662Z,20.61
2018-03-25T12:15:52.234Z,20.73
2018-03-25T12:18:18.154Z,20.74
2018-03-25T12:20:47.898Z,20.62
2018-03-25T12:23:13.786Z,20.40
2018-03-25T12:25:43.032Z,20.24
2018-03-25T12:28:08.929Z,19.98
2018-03-25T12:30:34.805Z,19.94
2018-03-25T12:33:00.700Z,20.10
2018-03-25T12:35:26.626Z,21.12
2018-03-25T12:37:52.708Z,21.65
2018-03-25T12:40:18.609Z,21.29
2018-03-25T12:42:47.439Z,21.23
2018-03-25T12:45:13.572Z,21.40
2018-03-25T12:47:45.776Z,21.84
2018-03-25T12:50:11.724Z,22.19
2018-03-25T12:52:37.603Z,22.00
2018-03-25T12:55:03.560Z,21.82
2018-03-25T12:57:32.441Z,21.23
2018-03-25T12:59:58.353Z,21.57
2018-03-25T13:02:28.027Z,22.13
2018-03-25T13:04:53.934Z,21.89
2018-03-25T13:07:19.862Z,20.55
2018-03-25T13:09:45.784Z,20.74
2018-03-25T13:12:11.680Z,21.25
2018-03-25T13:14:39.212Z,21.60
2018-03-25T13:17:05.138Z,22.17
2018-03-25T13:19:34.672Z,22.15
2018-03-25T13:22:00.562Z,22.57
2018-03-25T13:24:27.577Z,22.96
2018-03-25T13:26:53.493Z,22.79
2018-03-25T13:29:22.248Z,21.98
2018-03-25T13:31:48.377Z,21.98
2018-03-25T13:34:17.422Z,22.03
2018-03-25T13:36:43.334Z,22.48
2018-03-25T13:39:12.578Z,21.76
2018-03-25T13:41:38.505Z,21.30
2018-03-25T13:44:04.397Z,20.92
2018-03-25T13:46:30.324Z,20.98
2018-03-25T13:48:56.217Z,20.62
2018-03-25T13:51:23.382Z,20.70
2018-03-25T13:53:49.260Z,21.01
2018-03-25T13:56:18.006Z,21.23
2018-03-25T13:58:43.964Z,21.70
2018-03-25T14:01:13.471Z,21.68
2018-03-25T14:03:39.324Z,21.43
2018-03-25T14:06:09.120Z,21.34
2018-03-25T14:08:35.029Z,21.31
2018-03-25T14:11:02.378Z,21.42
2018-03-25T14:13:28.304Z,21.26
2018-03-25T14:15:57.638Z,21.30
2018-03-25T14:18:23.508Z,21.18
2018-03-25T14:20:49.382Z,21.02
2018-03-25T14:23:15.273Z,20.72
2018-03-25T14:25:41.141Z,20.71
2018-03-25T14:28:10.380Z,21.30
2018-03-25T14:30:36.303Z,21.58
2018-03-25T14:33:03.944Z,21.76
2018-03-25T14:35:29.829Z,21.43
2018-03-25T14:37:59.072Z,21.27
2018-03-25T14:40:25.017Z,21.51
2018-03-25T14:42:52.848Z,21.36
2018-03-25T14:45:18.783Z,20.35
2018-03-25T14:47:47.528Z,20.29
2018-03-25T14:50:13.701Z,20.34
2018-03-25T14:52:43.242Z,20.41
2018-03-25T14:55:09.110Z,20.42
2018-03-25T14:57:34.994Z,20.47
2018-03-25T15:00:00.912Z,20.41
2018-03-25T15:02:26.815Z,20.67
2018-03-25T15:04:54.017Z,20.59
2018-03-25T15:07:19.933Z,20.64
2018-03-25T15:09:49.399Z,20.69
2018-03-25T15:12:15.342Z,20.66
2018-03-25T15:14:45.210Z,20.84
2018-03-25T15:17:11.090Z,20.81
2018-03-25T15:19:38.350Z,20.72
2018-03-25T15:22:04.230Z,20.84
2018-03-25T15:24:33.533Z,21.08
2018-03-25T15:26:59.452Z,21.08
2018-03-25T15:29:28.670Z,20.94
2018-03-25T15:31:54.546Z,20.96
2018-03-25T15:34:20.469Z,20.69
2018-03-25T15:36:46.368Z,19.84
2018-03-25T15:39:12.255Z,19.38
2018-03-25T15:41:39.531Z,19.26
2018-03-25T15:44:05.448Z,19.14
2018-03-25T15:46:34.909Z,18.99
2018-03-25T15:49:00.787Z,18.89
2018-03-25T15:51:29.103Z,18.79
2018-03-25T15:53:54.980Z,18.55
2018-03-25T15:56:24.326Z,18.36
2018-03-25T15:58:50.180Z,18.11
2018-03-25T16:01:19.041Z,17.84
2018-03-25T16:03:44.928Z,17.61
2018-03-25T16:06:14.425Z,17.54
2018-03-25T16:08:40.282Z,17.33
2018-03-25T16:11:06.127Z,17.05
2018-03-25T16:13:31.996Z,16.84
2018-03-25T16:15:57.875Z,16.80
2018-03-25T16:18:24.784Z,16.59
2018-03-25T16:20:50.642Z,16.56
2018-03-25T16:23:19.754Z,16.44
2018-03-25T16:25:45.637Z,16.38
2018-03-25T16:28:14.742Z,16.27
2018-03-25T16:30:40.608Z,15.86
2018-03-25T16:33:09.897Z,15.90
2018-03-25T16:35:35.753Z,15.96
2018-03-25T16:38:05.043Z,15.84
2018-03-25T16:40:30.910Z,15.72
2018-03-25T16:42:58.606Z,15.74
2018-03-25T16:45:24.504Z,15.67
2018-03-25T16:47:50.384Z,15.58
2018-03-25T16:50:16.235Z,15.49
2018-03-25T16:52:42.140Z,15.35
2018-03-25T16:55:11.465Z,15.31
2018-03-25T16:57:37.345Z,15.15
2018-03-25T17:00:04.776Z,15.01
2018-03-25T17:02:30.673Z,14.97
2018-03-25T17:05:00.482Z,14.87
2018-03-25T17:07:26.334Z,14.81
2018-03-25T17:09:54.010Z,14.64
2018-03-25T17:12:19.865Z,14.53
2018-03-25T17:14:52.631Z,14.44
2018-03-25T17:17:18.528Z,14.21
2018-03-25T17:19:44.386Z,14.18
2018-03-25T17:22:10.274Z,14.13
2018-03-25T17:24:36.182Z,13.93
2018-03-25T17:27:02.092Z,13.77
2018-03-25T17:29:27.990Z,13.66
2018-03-25T17:31:55.792Z,13.58
2018-03-25T17:34:21.668Z,13.41
2018-03-25T17:36:49.752Z,13.18
2018-03-25T17:39:15.633Z,13.12
2018-03-25T17:41:44.270Z,12.94
2018-03-25T17:44:10.163Z,12.84
2018-03-25T17:49:06.969Z,12.59
2018-03-25T17:51:34.080Z,12.37
2018-03-25T17:53:59.964Z,12.27
2018-03-25T17:56:28.878Z,12.12
2018-03-25T17:58:54.749Z,12.06
2018-03-25T18:01:20.605Z,11.92
2018-03-25T18:03:46.490Z,11.85
2018-03-25T18:06:12.337Z,11.66
2018-03-25T18:08:42.220Z,11.53
2018-03-25T18:11:08.136Z,11.45
2018-03-25T18:13:35.664Z,11.43
2018-03-25T18:16:01.565Z,11.38
2018-03-25T18:18:30.065Z,11.25
2018-03-25T18:20:56.308Z,11.14
2018-03-25T18:23:25.644Z,11.08
2018-03-25T18:25:51.635Z,11.00
2018-03-25T18:28:20.813Z,11.04
2018-03-25T18:30:46.700Z,10.91
2018-03-25T18:33:14.030Z,10.90
2018-03-25T18:35:39.916Z,10.84
2018-03-25T18:38:05.857Z,10.83
2018-03-25T18:40:31.784Z,10.81
2018-03-25T18:42:57.705Z,10.68
2018-03-25T18:45:27.232Z,10.64
2018-03-25T18:47:53.130Z,10.55
2018-03-25T18:50:20.552Z,10.39
2018-03-25T18:52:46.470Z,10.44
2018-03-25T18:55:15.843Z,10.18
2018-03-25T18:57:41.779Z,10.18
2018-03-25T19:00:11.377Z,10.22
2018-03-25T19:02:37.327Z,10.12
2018-03-25T19:05:04.662Z,10.00
2018-03-25T19:07:30.566Z,9.98
2018-03-25T19:10:00.241Z,9.90
2018-03-25T19:12:26.161Z,9.67
2018-03-25T19:17:23.615Z,9.47
2018-03-25T19:19:49.485Z,9.38
2018-03-25T19:22:15.364Z,9.32
2018-03-25T19:24:41.279Z,9.29
2018-03-25T19:27:07.178Z,9.27
2018-03-25T19:29:33.087Z,9.28
2018-03-25T19:32:00.618Z,9.16
2018-03-25T19:34:26.478Z,9.13
2018-03-25T19:36:56.052Z,9.20
2018-03-25T19:39:22.374Z,9.17
2018-03-25T19:41:50.054Z,9.08
2018-03-25T19:44:15.990Z,9.15
2018-03-25T19:46:45.178Z,9.13
2018-03-25T19:49:11.066Z,9.12
2018-03-25T19:51:37.022Z,9.13
2018-03-25T19:54:02.943Z,9.10
2018-03-25T19:56:28.845Z,9.00
2018-03-25T19:58:56.197Z,8.93
2018-03-25T20:01:22.088Z,8.89
2018-03-25T20:03:50.989Z,8.99
2018-03-25T20:06:16.869Z,9.06
2018-03-25T20:08:45.506Z,9.20
2018-03-25T20:11:11.404Z,9.19
2018-03-25T20:13:40.338Z,9.17
2018-03-25T20:16:06.218Z,9.05
2018-03-25T20:18:35.140Z,8.98
2018-03-25T20:21:00.997Z,8.96
2018-03-25T20:23:29.736Z,8.93
2018-03-25T20:25:55.650Z,8.99
2018-03-25T20:28:21.538Z,8.93
2018-03-25T20:30:47.699Z,8.85
2018-03-25T20:33:13.563Z,8.85
2018-03-25T20:35:41.628Z,8.73
2018-03-25T20:38:07.530Z,8.70
2018-03-25T20:40:37.205Z,8.70
2018-03-25T20:43:03.103Z,8.62
2018-03-25T20:45:31.317Z,8.58
2018-03-25T20:47:57.260Z,8.52
2018-03-25T20:50:26.909Z,8.54
2018-03-25T20:52:52.789Z,8.49
2018-03-25T20:55:20.487Z,8.41
2018-03-25T20:57:46.379Z,8.35
2018-03-25T21:00:15.188Z,8.21
2018-03-25T21:02:41.121Z,8.16
2018-03-25T21:05:07.023Z,8.17
2018-03-25T21:07:32.921Z,8.12
2018-03-25T21:09:58.839Z,8.04
2018-03-25T21:12:28.556Z,8.11
2018-03-25T21:14:56.401Z,8.06
2018-03-25T21:17:22.304Z,8.02
2018-03-25T21:19:48.201Z,8.00
2018-03-25T21:22:17.203Z,7.94
2018-03-25T21:24:43.085Z,7.84
2018-03-25T21:27:12.714Z,7.76
2018-03-25T21:29:38.595Z,7.75
2018-03-25T21:32:05.574Z,7.66
2018-03-25T21:34:31.487Z,7.54
2018-03-25T21:37:01.092Z,7.47
2018-03-25T21:39:26.947Z,7.49
2018-03-25T21:41:52.850Z,7.46
2018-03-25T21:44:18.793Z,7.50
2018-03-25T21:46:44.686Z,7.36
2018-03-25T21:49:13.921Z,7.27
2018-03-25T21:51:39.811Z,7.11
2018-03-25T21:54:07.097Z,7.14
2018-03-25T21:56:33.014Z,7.00
2018-03-25T21:59:01.790Z,7.08
2018-03-25T22:01:27.712Z,7.09
2018-03-25T22:03:57.032Z,7.11
2018-03-25T22:06:22.921Z,7.03
2018-03-25T22:08:51.008Z,7.04
2018-03-25T22:11:16.878Z,6.87
2018-03-25T22:13:46.292Z,6.72
2018-03-25T22:16:12.169Z,6.66
2018-03-25T22:18:50.343Z,6.57
2018-03-25T22:21:16.214Z,6.62
2018-03-25T22:23:42.111Z,6.70
2018-03-25T22:26:08.007Z,6.75
2018-03-25T22:28:33.908Z,6.79
2018-03-25T22:30:59.785Z,6.63
2018-03-25T22:33:25.662Z,6.64
2018-03-25T22:35:51.526Z,6.66
2018-03-25T22:38:17.413Z,6.63
2018-03-25T22:40:43.331Z,6.49
2018-03-25T22:43:09.235Z,6.42
2018-03-25T22:45:36.853Z,6.39
2018-03-25T22:48:02.777Z,6.42
2018-03-25T22:50:32.216Z,6.34
2018-03-25T22:52:58.097Z,6.23
2018-03-25T22:55:23.994Z,6.17
2018-03-25T22:57:49.877Z,6.13
2018-03-25T23:00:15.761Z,6.05
2018-03-25T23:02:43.277Z,6.05
2018-03-25T23:05:09.201Z,6.09
2018-03-25T23:07:38.408Z,6.26
2018-03-25T23:10:04.362Z,6.26
2018-03-25T23:12:33.737Z,6.19
2018-03-25T23:14:59.588Z,6.19
2018-03-25T23:17:26.930Z,6.16
2018-03-25T23:19:52.828Z,6.14
2018-03-25T23:22:21.612Z,6.23
2018-03-25T23:24:47.504Z,6.23
2018-03-25T23:27:16.413Z,6.20
2018-03-25T23:29:42.282Z,6.31
2018-03-25T23:32:08.167Z,6.38
2018-03-25T23:34:35.131Z,6.32
2018-03-25T23:37:01.076Z,6.28
2018-03-25T23:39:27.894Z,6.23
2018-03-25T23:41:53.770Z,6.16
2018-03-25T23:44:22.850Z,6.04
2018-03-25T23:46:49.069Z,5.96
2018-03-25T23:49:18.765Z,5.98
2018-03-25T23:51:44.647Z,6.03
2018-03-25T23:54:13.926Z,5.95
2018-03-25T23:56:39.845Z,5.83
2018-03-25T23:59:07.596Z,5.71
